createdAt,value
2018-07-15T00:01:03.057Z,998.27
2018-07-15T00:02:13.132Z,998.24
2018-07-15T00:03:23.208Z,998.26
2018-07-15T00:04:33.295Z,998.27
2018-07-15T00:05:43.384Z,998.25
2018-07-15T00:06:53.456Z,998.24
2018-07-15T00:08:03.523Z,998.21
2018-07-15T00:09:13.338Z,998.21
2018-07-15T00:10:23.404Z,998.22
2018-07-15T00:11:33.481Z,998.21
2018-07-15T00:12:43.555Z,998.23
2018-07-15T00:13:53.643Z,998.28
2018-07-15T00:15:03.459Z,998.25
2018-07-15T00:16:13.523Z,998.25
2018-07-15T00:17:23.653Z,998.27
2018-07-15T00:18:33.725Z,998.27
2018-07-15T00:19:43.801Z,998.24
2018-07-15T00:20:53.865Z,998.26
2018-07-15T00:22:03.689Z,998.25
2018-07-15T00:23:13.774Z,998.19
2018-07-15T00:24:23.852Z,998.24
2018-07-15T00:25:33.921Z,998.22
2018-07-15T00:26:44.011Z,998.21
2018-07-15T00:27:53.825Z,998.22
2018-07-15T00:29:03.907Z,998.21
2018-07-15T00:30:13.976Z,998.2
2018-07-15T00:31:24.048Z,998.16
2018-07-15T00:32:33.612Z,998.15
2018-07-15T00:33:43.685Z,998.16
2018-07-15T00:34:53.772Z,998.14
2018-07-15T00:36:03.859Z,998.13
2018-07-15T00:37:13.670Z,998.14
2018-07-15T00:38:23.737Z,998.13
2018-07-15T00:39:33.868Z,998.1
2018-07-15T00:40:43.983Z,998.13
2018-07-15T00:41:54.040Z,998.17
2018-07-15T00:43:03.855Z,998.09
2018-07-15T00:44:13.936Z,998.09
2018-07-15T00:45:24.006Z,998.12
2018-07-15T00:46:34.088Z,998.11
2018-07-15T00:47:43.637Z,998.04
2018-07-15T00:48:53.438Z,998.09
2018-07-15T00:50:03.253Z,998.05
2018-07-15T00:51:13.447Z,998.04
2018-07-15T00:52:23.497Z,998.03
2018-07-15T00:53:33.573Z,998.02
2018-07-15T00:54:43.639Z,998.04
2018-07-15T00:55:53.458Z,997.99
2018-07-15T00:57:03.594Z,997.97
2018-07-15T00:58:13.147Z,997.93
2018-07-15T00:59:22.685Z,997.92
2018-07-15T01:00:32.499Z,997.96
2018-07-15T01:01:42.302Z,997.94
2018-07-15T01:02:52.357Z,997.97
2018-07-15T01:04:02.174Z,997.95
2018-07-15T01:05:12.276Z,997.94
2018-07-15T01:06:22.344Z,997.96
2018-07-15T01:07:32.159Z,997.98
2018-07-15T01:08:42.237Z,997.97
2018-07-15T01:09:52.043Z,997.96
2018-07-15T01:11:02.120Z,997.97
2018-07-15T01:12:11.932Z,997.95
2018-07-15T01:13:21.984Z,997.96
2018-07-15T01:14:32.065Z,997.94
2018-07-15T01:15:42.134Z,997.96
2018-07-15T01:16:51.954Z,997.93
2018-07-15T01:18:02.027Z,997.98
2018-07-15T01:19:12.115Z,997.96
2018-07-15T01:20:21.934Z,997.99
2018-07-15T01:21:32.022Z,998.02
2018-07-15T01:22:42.100Z,998.03
2018-07-15T01:23:52.170Z,998.02
2018-07-15T01:25:02.238Z,998.02
2018-07-15T01:26:12.325Z,997.98
2018-07-15T01:27:22.397Z,997.99
2018-07-15T01:28:32.476Z,997.99
2018-07-15T01:29:42.547Z,998
2018-07-15T01:30:52.359Z,998.01
2018-07-15T01:32:02.165Z,998.02
2018-07-15T01:33:12.233Z,998.01
2018-07-15T01:34:22.304Z,998.02
2018-07-15T01:35:32.108Z,998
2018-07-15T01:36:42.166Z,997.98
2018-07-15T01:37:51.963Z,997.99
2018-07-15T01:39:02.038Z,998.03
2018-07-15T01:40:12.099Z,997.96
2018-07-15T01:41:21.907Z,997.99
2018-07-15T01:42:31.966Z,997.98
2018-07-15T01:43:42.054Z,997.96
2018-07-15T01:44:52.140Z,998
2018-07-15T01:46:01.692Z,997.98
2018-07-15T01:47:11.518Z,997.98
2018-07-15T01:48:21.322Z,998.02
2018-07-15T01:49:30.912Z,998.01
2018-07-15T01:50:40.983Z,998.02
2018-07-15T01:51:51.054Z,998.02
2018-07-15T01:53:01.115Z,998.01
2018-07-15T01:54:10.918Z,998.02
2018-07-15T01:55:20.976Z,998.02
2018-07-15T01:56:31.053Z,998.02
2018-07-15T01:57:40.864Z,998.04
2018-07-15T01:58:50.417Z,998.06
2018-07-15T02:00:00.225Z,998.02
2018-07-15T02:01:10.040Z,998.03
2018-07-15T02:02:20.120Z,998.04
2018-07-15T02:03:30.178Z,998.1
2018-07-15T02:04:40.249Z,998.07
2018-07-15T02:05:50.079Z,998.1
2018-07-15T02:07:00.224Z,998.07
2018-07-15T02:08:10.291Z,998.02
2018-07-15T02:09:20.350Z,998.08
2018-07-15T02:10:30.410Z,998.04
2018-07-15T02:11:40.491Z,998.02
2018-07-15T02:12:50.301Z,998.06
2018-07-15T02:14:00.124Z,998.1
2018-07-15T02:15:10.205Z,998.05
2018-07-15T02:16:20.327Z,998.07
2018-07-15T02:17:30.419Z,998.08
2018-07-15T02:18:40.214Z,998.08
2018-07-15T02:19:50.274Z,998.07
2018-07-15T02:21:00.348Z,998.05
2018-07-15T02:22:10.146Z,998.05
2018-07-15T02:23:20.203Z,998.08
2018-07-15T02:24:30.108Z,998.06
2018-07-15T02:25:40.180Z,998.07
2018-07-15T02:26:50.742Z,998.09
2018-07-15T02:28:00.818Z,998.1
2018-07-15T02:29:10.871Z,998.08
2018-07-15T02:30:20.938Z,998.08
2018-07-15T02:31:30.988Z,998.11
2018-07-15T02:32:40.803Z,998.09
2018-07-15T02:33:50.894Z,998.1
2018-07-15T02:35:00.987Z,998.09
2018-07-15T02:36:10.604Z,998.07
2018-07-15T02:37:20.684Z,998.06
2018-07-15T02:38:30.765Z,998.04
2018-07-15T02:39:40.864Z,998.05
2018-07-15T02:40:50.957Z,998.04
2018-07-15T02:42:01.073Z,998.02
2018-07-15T02:43:11.133Z,998.03
2018-07-15T02:44:21.208Z,998.02
2018-07-15T02:45:31.019Z,998.01
2018-07-15T02:46:40.820Z,997.97
2018-07-15T02:47:50.962Z,998.01
2018-07-15T02:49:01.037Z,998.01
2018-07-15T02:50:11.122Z,998.01
2018-07-15T02:51:21.284Z,998.05
2018-07-15T02:52:31.380Z,998.02
2018-07-15T02:53:41.455Z,998.06
2018-07-15T02:54:51.254Z,998.02
2018-07-15T02:56:01.327Z,998.02
2018-07-15T02:57:11.398Z,998
2018-07-15T02:58:20.944Z,998.03
2018-07-15T02:59:31.076Z,998.01
2018-07-15T03:00:41.170Z,997.98
2018-07-15T03:01:51.266Z,998
2018-07-15T03:03:01.347Z,998.02
2018-07-15T03:35:05.625Z,998.21
2018-07-15T03:36:15.683Z,998.21
2018-07-15T03:37:25.765Z,998.17
2018-07-15T03:38:35.817Z,998.17
2018-07-15T03:39:45.628Z,998.13
2018-07-15T03:40:55.348Z,998.17
2018-07-15T03:42:05.406Z,998.17
2018-07-15T03:43:15.466Z,998.16
2018-07-15T03:44:25.026Z,998.15
2018-07-15T03:45:35.092Z,998.16
2018-07-15T03:46:45.172Z,998.18
2018-07-15T03:47:55.258Z,998.16
2018-07-15T03:49:05.355Z,998.11
2018-07-15T03:50:15.437Z,998.18
2018-07-15T03:51:25.507Z,998.14
2018-07-15T03:52:35.618Z,998.15
2018-07-15T03:53:45.687Z,998.18
2018-07-15T03:54:55.758Z,998.18
2018-07-15T03:56:05.806Z,998.16
2018-07-15T03:57:15.616Z,998.16
2018-07-15T03:58:25.730Z,998.19
2018-07-15T03:59:35.798Z,998.17
2018-07-15T04:00:45.910Z,998.22
2018-07-15T04:01:56.258Z,998.23
2018-07-15T04:03:06.060Z,998.27
2018-07-15T04:04:16.184Z,998.26
2018-07-15T04:05:26.249Z,998.3
2018-07-15T04:06:36.321Z,998.3
2018-07-15T04:07:46.393Z,998.29
2018-07-15T04:08:56.488Z,998.27
2018-07-15T04:10:07.196Z,998.26
2018-07-15T04:11:17.008Z,998.27
2018-07-15T04:12:27.082Z,998.29
2018-07-15T04:13:37.157Z,998.25
2018-07-15T04:14:47.230Z,998.3
2018-07-15T04:15:57.035Z,998.3
2018-07-15T04:17:07.100Z,998.27
2018-07-15T04:18:16.923Z,998.29
2018-07-15T04:19:26.980Z,998.23
2018-07-15T04:20:37.059Z,998.24
2018-07-15T04:21:47.137Z,998.26
2018-07-15T04:22:57.208Z,998.28
2018-07-15T04:24:07.277Z,998.25
2018-07-15T04:25:17.101Z,998.23
2018-07-15T04:26:27.166Z,998.24
2018-07-15T04:27:37.251Z,998.58
2018-07-15T04:28:47.300Z,998.98
2018-07-15T04:29:57.375Z,998.95
2018-07-15T04:31:07.189Z,998.83
2018-07-15T04:32:17.258Z,998.86
2018-07-15T04:33:27.332Z,998.81
2018-07-15T04:34:37.139Z,998.8
2018-07-15T04:35:47.233Z,998.73
2018-07-15T04:36:57.300Z,998.63
2018-07-15T04:38:07.115Z,998.62
2018-07-15T04:39:17.193Z,998.6
2018-07-15T04:40:26.746Z,998.57
2018-07-15T04:41:36.821Z,998.58
2018-07-15T04:42:46.629Z,998.59
2018-07-15T04:43:56.577Z,998.58
2018-07-15T04:45:06.412Z,998.56
2018-07-15T04:46:16.477Z,998.58
2018-07-15T04:47:26.294Z,998.61
2018-07-15T04:48:36.099Z,998.62
2018-07-15T04:49:45.895Z,998.64
2018-07-15T04:50:55.957Z,998.72
2018-07-15T04:52:06.032Z,998.68
2018-07-15T04:53:16.108Z,998.75
2018-07-15T04:54:26.179Z,998.72
2018-07-15T04:55:36.253Z,998.68
2018-07-15T04:56:46.069Z,998.74
2018-07-15T04:57:56.157Z,998.81
2018-07-15T04:59:06.219Z,998.83
2018-07-15T05:00:16.299Z,998.8
2018-07-15T05:01:26.371Z,998.86
2018-07-15T05:02:36.447Z,998.91
2018-07-15T05:03:46.539Z,998.9
2018-07-15T05:04:56.639Z,998.84
2018-07-15T05:06:06.448Z,998.85
2018-07-15T05:07:16.531Z,998.86
2018-07-15T05:08:26.611Z,998.83
2018-07-15T05:09:36.703Z,998.84
2018-07-15T05:10:46.785Z,998.81
2018-07-15T05:11:56.903Z,998.82
2018-07-15T05:13:06.977Z,998.77
2018-07-15T05:14:17.074Z,998.81
2018-07-15T05:15:27.212Z,998.76
2018-07-15T05:16:37.303Z,998.81
2018-07-15T05:17:47.376Z,998.83
2018-07-15T05:18:57.468Z,998.85
2018-07-15T05:20:07.538Z,999.09
2018-07-15T05:21:17.625Z,999.66
2018-07-15T05:22:27.699Z,999.71
2018-07-15T05:23:37.778Z,999.57
2018-07-15T05:24:47.917Z,999.54
2018-07-15T05:25:58.136Z,999.28
2018-07-15T05:27:07.940Z,999.2
2018-07-15T05:28:17.762Z,999.48
2018-07-15T05:29:27.584Z,999.46
2018-07-15T05:30:37.662Z,999.44
2018-07-15T05:31:47.746Z,999.44
2018-07-15T05:32:57.812Z,999.37
2018-07-15T05:34:07.886Z,999.36
2018-07-15T05:35:17.966Z,999.37
2018-07-15T05:36:28.040Z,999.36
2018-07-15T05:37:38.131Z,999.44
2018-07-15T05:38:48.220Z,999.51
2018-07-15T05:39:58.290Z,999.4
2018-07-15T05:41:08.370Z,999.31
2018-07-15T05:42:18.444Z,999.35
2018-07-15T05:43:28.530Z,999.36
2018-07-15T05:44:38.602Z,999.34
2018-07-15T05:45:48.688Z,999.4
2018-07-15T05:46:58.773Z,999.34
2018-07-15T05:48:08.852Z,999.21
2018-07-15T05:49:18.654Z,999.31
2018-07-15T05:50:28.730Z,999.3
2018-07-15T05:51:38.812Z,999.24
2018-07-15T05:52:48.698Z,999.19
2018-07-15T05:53:58.522Z,999.23
2018-07-15T05:55:08.601Z,999.27
2018-07-15T05:56:18.673Z,999.28
2018-07-15T05:57:28.749Z,999.22
2018-07-15T05:58:38.825Z,999.2
2018-07-15T05:59:48.904Z,999.22
2018-07-15T06:00:58.975Z,999.22
2018-07-15T06:02:08.551Z,999.15
2018-07-15T06:03:18.625Z,999.13
2018-07-15T06:04:28.944Z,999.08
2018-07-15T06:05:39.016Z,999.1
2018-07-15T06:06:49.095Z,999.03
2018-07-15T06:07:59.168Z,999.07
2018-07-15T06:09:09.335Z,999.09
2018-07-15T06:10:19.418Z,999.06
2018-07-15T06:11:29.240Z,999.06
2018-07-15T06:12:39.321Z,999.06
2018-07-15T06:13:49.387Z,999.02
2018-07-15T06:14:59.462Z,999.03
2018-07-15T06:16:09.552Z,998.98
2018-07-15T06:17:19.633Z,999.03
2018-07-15T06:18:29.696Z,999
2018-07-15T06:19:39.919Z,998.99
2018-07-15T06:20:49.999Z,998.98
2018-07-15T06:21:59.814Z,998.97
2018-07-15T06:23:09.902Z,998.87
2018-07-15T06:24:19.977Z,998.71
2018-07-15T06:25:30.053Z,998.68
2018-07-15T06:26:39.598Z,998.7
2018-07-15T06:27:49.681Z,998.71
2018-07-15T06:28:59.786Z,998.72
2018-07-15T06:30:09.849Z,998.77
2018-07-15T06:31:19.927Z,998.9
2018-07-15T06:32:29.753Z,998.93
2018-07-15T06:33:39.843Z,998.93
2018-07-15T06:34:49.934Z,998.98
2018-07-15T06:36:00.021Z,998.92
2018-07-15T06:37:10.113Z,998.99
2018-07-15T06:38:19.915Z,998.93
2018-07-15T06:39:29.990Z,998.95
2018-07-15T06:40:40.064Z,998.92
2018-07-15T06:41:49.625Z,998.93
2018-07-15T06:42:59.434Z,998.87
2018-07-15T06:44:09.559Z,998.95
2018-07-15T06:45:19.370Z,998.85
2018-07-15T06:46:29.444Z,998.84
2018-07-15T06:47:39.524Z,998.82
2018-07-15T06:48:49.696Z,998.83
2018-07-15T06:49:59.510Z,998.81
2018-07-15T06:51:09.605Z,998.82
2018-07-15T06:52:19.665Z,998.86
2018-07-15T06:53:29.767Z,998.88
2018-07-15T06:54:39.318Z,998.88
2018-07-15T06:55:49.128Z,998.88
2018-07-15T06:56:59.488Z,998.89
2018-07-15T06:58:09.582Z,998.82
2018-07-15T06:59:19.386Z,998.84
2018-07-15T07:00:29.481Z,998.8
2018-07-15T07:01:39.595Z,998.8
2018-07-15T07:02:49.733Z,998.79
2018-07-15T07:03:59.823Z,998.8
2018-07-15T07:05:09.905Z,998.8
2018-07-15T07:06:19.988Z,998.78
2018-07-15T07:07:30.141Z,998.78
2018-07-15T07:08:39.860Z,998.78
2018-07-15T07:09:49.678Z,998.77
2018-07-15T07:10:59.750Z,998.78
2018-07-15T07:12:09.876Z,998.78
2018-07-15T07:13:19.972Z,998.76
2018-07-15T07:14:30.053Z,998.73
2018-07-15T07:15:39.872Z,998.73
2018-07-15T07:16:49.686Z,998.73
2018-07-15T07:17:59.771Z,998.69
2018-07-15T07:19:09.594Z,998.69
2018-07-15T07:20:19.408Z,998.68
2018-07-15T07:21:29.399Z,998.69
2018-07-15T07:22:39.224Z,998.69
2018-07-15T07:23:49.294Z,998.68
2018-07-15T07:24:59.381Z,998.68
2018-07-15T07:26:09.217Z,998.7
2018-07-15T07:27:19.291Z,998.69
2018-07-15T07:28:29.379Z,998.71
2018-07-15T07:29:39.204Z,998.7
2018-07-15T07:30:49.012Z,998.72
2018-07-15T07:31:59.095Z,998.7
2018-07-15T07:33:09.207Z,998.71
2018-07-15T07:34:19.290Z,998.69
2018-07-15T07:35:29.499Z,998.67
2018-07-15T07:36:39.781Z,998.68
2018-07-15T07:37:49.343Z,998.67
2018-07-15T07:38:59.419Z,998.63
2018-07-15T07:40:09.491Z,998.69
2018-07-15T07:41:19.632Z,998.68
2018-07-15T07:42:30.110Z,998.68
2018-07-15T07:43:39.918Z,998.63
2018-07-15T07:44:49.999Z,998.66
2018-07-15T07:46:00.072Z,998.7
2018-07-15T07:47:10.253Z,998.69
2018-07-15T07:48:20.076Z,998.68
2018-07-15T07:49:30.181Z,998.68
2018-07-15T07:50:40.261Z,998.66
2018-07-15T07:51:50.105Z,998.69
2018-07-15T07:53:00.206Z,998.67
2018-07-15T07:54:10.379Z,998.74
2018-07-15T07:55:20.463Z,998.72
2018-07-15T07:56:30.539Z,998.68
2018-07-15T07:57:40.668Z,998.61
2018-07-15T07:58:50.758Z,998.66
2018-07-15T08:00:00.845Z,998.63
2018-07-15T08:01:10.928Z,998.63
2018-07-15T08:02:20.762Z,998.64
2018-07-15T08:03:30.583Z,998.63
2018-07-15T08:04:40.722Z,998.65
2018-07-15T08:05:50.805Z,998.65
2018-07-15T08:07:00.892Z,998.64
2018-07-15T08:08:10.193Z,998.65
2018-07-15T08:09:19.754Z,998.68
2018-07-15T08:10:29.850Z,998.65
2018-07-15T08:11:39.928Z,998.64
2018-07-15T08:12:49.744Z,998.64
2018-07-15T08:13:59.825Z,998.6
2018-07-15T08:15:09.420Z,998.61
2018-07-15T08:16:19.366Z,998.62
2018-07-15T08:17:29.471Z,998.61
2018-07-15T08:18:39.572Z,998.59
2018-07-15T08:19:49.656Z,998.6
2018-07-15T08:20:59.473Z,998.61
2018-07-15T08:22:09.628Z,998.62
2018-07-15T08:23:19.710Z,998.58
2018-07-15T08:24:29.793Z,998.6
2018-07-15T08:25:39.607Z,998.61
2018-07-15T08:26:49.435Z,998.56
2018-07-15T08:27:59.535Z,998.52
2018-07-15T08:29:09.985Z,998.56
2018-07-15T08:30:19.797Z,998.54
2018-07-15T08:31:29.611Z,998.56
2018-07-15T08:32:39.724Z,998.57
2018-07-15T08:33:49.795Z,998.59
2018-07-15T08:34:59.922Z,998.56
2018-07-15T08:36:09.706Z,998.53
2018-07-15T08:37:19.861Z,998.57
2018-07-15T08:38:29.948Z,998.51
2018-07-15T08:39:40.085Z,998.56
2018-07-15T08:40:50.263Z,998.55
2018-07-15T08:42:00.456Z,998.54
2018-07-15T08:43:10.549Z,998.54
2018-07-15T08:44:20.637Z,998.55
2018-07-15T08:45:30.449Z,998.5
2018-07-15T08:46:40.324Z,998.55
2018-07-15T08:47:50.401Z,998.53
2018-07-15T08:49:00.473Z,998.55
2018-07-15T08:50:10.564Z,998.55
2018-07-15T08:51:20.700Z,998.51
2018-07-15T08:52:30.810Z,998.53
2018-07-15T08:53:40.890Z,998.48
2018-07-15T08:54:50.965Z,998.48
2018-07-15T08:56:00.788Z,998.47
2018-07-15T08:57:10.874Z,998.43
2018-07-15T08:58:20.968Z,998.46
2018-07-15T08:59:30.781Z,998.48
2018-07-15T09:00:40.866Z,998.47
2018-07-15T09:01:50.960Z,998.39
2018-07-15T09:03:01.090Z,998.42
2018-07-15T09:04:11.249Z,998.4
2018-07-15T09:05:21.324Z,998.44
2018-07-15T09:06:31.137Z,998.44
2018-07-15T09:07:41.247Z,998.42
2018-07-15T09:08:51.087Z,998.4
2018-07-15T09:10:00.910Z,998.43
2018-07-15T09:11:10.987Z,998.39
2018-07-15T09:12:21.069Z,998.39
2018-07-15T09:13:31.169Z,998.34
2018-07-15T09:14:41.348Z,998.47
2018-07-15T09:15:51.572Z,998.48
2018-07-15T09:17:01.296Z,998.44
2018-07-15T09:18:11.391Z,998.42
2018-07-15T09:19:21.543Z,998.46
2018-07-15T09:20:31.167Z,998.43
2018-07-15T09:21:41.023Z,998.38
2018-07-15T09:22:51.336Z,998.33
2018-07-15T09:24:01.172Z,998.31
2018-07-15T09:25:11.252Z,998.33
2018-07-15T09:26:21.363Z,998.33
2018-07-15T09:27:31.458Z,998.36
2018-07-15T09:28:41.552Z,998.35
2018-07-15T09:29:51.615Z,998.38
2018-07-15T09:31:01.741Z,998.36
2018-07-15T09:32:11.928Z,998.32
2018-07-15T09:33:22.014Z,998.35
2018-07-15T09:34:32.099Z,998.35
2018-07-15T09:35:41.910Z,998.29
2018-07-15T09:36:51.755Z,998.33
2018-07-15T09:38:01.881Z,998.31
2018-07-15T09:39:11.979Z,998.29
2018-07-15T09:40:22.080Z,998.24
2018-07-15T09:41:32.201Z,998.22
2018-07-15T09:42:42.308Z,998.19
2018-07-15T09:43:52.400Z,998.22
2018-07-15T09:45:02.515Z,998.25
2018-07-15T09:46:12.614Z,998.28
2018-07-15T09:47:22.700Z,998.3
2018-07-15T09:48:32.793Z,998.29
2018-07-15T09:49:42.347Z,998.27
2018-07-15T09:50:52.186Z,998.24
2018-07-15T09:52:01.743Z,998.2
2018-07-15T09:53:11.844Z,998.21
2018-07-15T09:54:21.940Z,998.23
2018-07-15T09:55:32.023Z,998.19
2018-07-15T09:56:42.110Z,998.17
2018-07-15T09:57:52.218Z,998.14
2018-07-15T09:59:02.310Z,998.16
2018-07-15T10:00:12.182Z,998.13
2018-07-15T10:01:22.023Z,998.13
2018-07-15T10:02:31.864Z,998.08
2018-07-15T10:03:41.950Z,998.1
2018-07-15T10:04:52.031Z,998.04
2018-07-15T10:06:01.850Z,998.08
2018-07-15T10:07:11.929Z,998.08
2018-07-15T10:08:22.007Z,998.07
2018-07-15T10:09:31.898Z,998.05
2018-07-15T10:10:42.000Z,998.01
2018-07-15T10:11:52.135Z,998.01
2018-07-15T10:13:02.024Z,998.06
2018-07-15T10:14:11.851Z,998.03
2018-07-15T10:15:21.671Z,998.06
2018-07-15T10:16:31.509Z,998.09
2018-07-15T10:17:41.598Z,998.07
2018-07-15T10:18:51.755Z,998.03
2018-07-15T10:20:01.476Z,998.03
2018-07-15T10:21:11.297Z,997.99
2018-07-15T10:22:21.115Z,998.02
2018-07-15T10:23:31.209Z,997.99
2018-07-15T10:24:41.288Z,997.95
2018-07-15T10:25:51.381Z,997.95
2018-07-15T10:27:01.219Z,997.99
2018-07-15T10:28:11.305Z,997.97
2018-07-15T10:29:21.404Z,997.96
2018-07-15T10:30:31.493Z,997.93
2018-07-15T10:31:41.301Z,997.87
2018-07-15T10:32:51.398Z,997.86
2018-07-15T10:34:01.511Z,997.93
2018-07-15T10:35:11.603Z,997.89
2018-07-15T10:36:21.709Z,997.84
2018-07-15T10:37:31.532Z,997.82
2018-07-15T10:38:41.623Z,997.8
2018-07-15T10:39:51.451Z,997.73
2018-07-15T10:41:01.526Z,997.8
2018-07-15T10:42:11.637Z,997.83
2018-07-15T10:43:21.733Z,997.76
2018-07-15T10:44:31.820Z,997.77
2018-07-15T10:45:41.916Z,997.73
2018-07-15T10:46:51.995Z,997.71
2018-07-15T10:48:01.828Z,997.73
2018-07-15T10:49:11.929Z,997.74
2018-07-15T10:50:22.006Z,997.74
2018-07-15T10:51:31.837Z,997.75
2018-07-15T10:52:41.947Z,997.67
2018-07-15T10:53:52.336Z,997.71
2018-07-15T10:55:02.514Z,997.69
2018-07-15T10:56:12.100Z,997.67
2018-07-15T10:57:22.186Z,997.67
2018-07-15T10:58:32.275Z,997.68
2018-07-15T10:59:42.345Z,997.61
2018-07-15T11:00:52.461Z,997.61
2018-07-15T11:02:02.472Z,997.62
2018-07-15T11:03:12.557Z,997.62
2018-07-15T11:04:22.370Z,997.6
2018-07-15T11:05:32.487Z,997.56
2018-07-15T11:06:42.564Z,997.58
2018-07-15T11:07:52.651Z,997.61
2018-07-15T11:09:02.734Z,997.46
2018-07-15T11:10:12.815Z,997.54
2018-07-15T11:11:22.665Z,997.47
2018-07-15T11:12:32.537Z,997.48
2018-07-15T11:13:42.623Z,997.43
2018-07-15T11:14:52.712Z,997.46
2018-07-15T11:16:02.795Z,997.47
2018-07-15T11:17:12.886Z,997.43
2018-07-15T11:18:22.974Z,997.42
2018-07-15T11:19:33.068Z,997.37
2018-07-15T11:20:43.138Z,997.37
2018-07-15T11:21:53.029Z,997.45
2018-07-15T11:23:03.120Z,997.39
2018-07-15T11:24:13.217Z,997.41
2018-07-15T11:25:23.329Z,997.39
2018-07-15T11:26:33.419Z,997.38
2018-07-15T11:27:43.505Z,997.35
2018-07-15T11:28:53.333Z,997.34
2018-07-15T11:30:03.423Z,997.33
2018-07-15T11:31:13.599Z,997.25
2018-07-15T11:32:24.147Z,997.29
2018-07-15T11:33:33.988Z,997.3
2018-07-15T11:34:44.082Z,997.29
2018-07-15T11:35:54.179Z,997.27
2018-07-15T11:37:04.032Z,997.24
2018-07-15T11:38:13.869Z,997.21
2018-07-15T11:39:23.954Z,997.14
2018-07-15T11:40:34.056Z,997.18
2018-07-15T11:41:44.149Z,997.15
2018-07-15T11:42:54.238Z,997.12
2018-07-15T11:44:04.317Z,997.09
2018-07-15T11:45:13.928Z,997.12
2018-07-15T11:46:23.473Z,997.06
2018-07-15T11:47:33.555Z,997.06
2018-07-15T11:48:43.373Z,997.05
2018-07-15T11:49:53.467Z,997.1
2018-07-15T11:51:03.605Z,997.04
2018-07-15T11:52:13.455Z,997.01
2018-07-15T11:53:23.562Z,997.03
2018-07-15T11:54:33.717Z,997.02
2018-07-15T11:55:44.180Z,996.98
2018-07-15T11:56:54.335Z,996.93
2018-07-15T11:58:04.161Z,996.9
2018-07-15T11:59:13.994Z,996.85
2018-07-15T12:00:24.072Z,996.84
2018-07-15T12:01:34.233Z,996.86
2018-07-15T12:02:44.561Z,996.87
2018-07-15T12:03:54.396Z,996.82
2018-07-15T12:05:04.496Z,996.88
2018-07-15T12:06:14.605Z,996.79
2018-07-15T12:07:24.432Z,996.81
2018-07-15T12:08:34.500Z,996.79
2018-07-15T12:09:44.327Z,996.77
2018-07-15T12:10:54.152Z,996.72
2018-07-15T12:12:04.193Z,996.7
2018-07-15T12:13:14.035Z,996.69
2018-07-15T12:14:24.122Z,996.68
2018-07-15T12:15:34.192Z,996.71
2018-07-15T12:16:44.027Z,996.62
2018-07-15T12:17:54.114Z,996.61
2018-07-15T12:19:04.198Z,996.58
2018-07-15T12:20:14.023Z,996.55
2018-07-15T12:21:24.230Z,996.57
2018-07-15T12:22:34.321Z,996.52
2018-07-15T12:23:44.408Z,996.54
2018-07-15T12:24:54.512Z,996.53
2018-07-15T12:26:04.417Z,996.52
2018-07-15T12:27:14.523Z,996.55
2018-07-15T12:28:24.638Z,996.57
2018-07-15T12:29:34.721Z,996.5
2018-07-15T12:30:44.844Z,996.54
2018-07-15T12:31:55.009Z,996.49
2018-07-15T12:33:05.101Z,996.53
2018-07-15T12:34:15.225Z,996.47
2018-07-15T12:35:25.302Z,996.48
2018-07-15T12:36:35.451Z,996.46
2018-07-15T12:37:45.569Z,996.35
2018-07-15T12:38:55.659Z,996.33
2018-07-15T12:40:05.533Z,996.34
2018-07-15T12:41:15.618Z,996.32
2018-07-15T12:42:25.718Z,996.37
2018-07-15T12:43:35.803Z,996.38
2018-07-15T12:44:45.616Z,996.38
2018-07-15T12:45:55.437Z,996.37
2018-07-15T12:47:04.994Z,996.39
2018-07-15T12:48:15.078Z,996.34
2018-07-15T12:49:25.151Z,996.32
2018-07-15T12:50:35.233Z,996.27
2018-07-15T12:51:45.346Z,996.37
2018-07-15T12:52:55.432Z,996.31
2018-07-15T12:54:05.539Z,996.27
2018-07-15T12:55:15.623Z,996.27
2018-07-15T12:56:25.721Z,996.25
2018-07-15T12:57:35.553Z,996.24
2018-07-15T12:58:45.661Z,996.21
2018-07-15T12:59:55.761Z,996.2
2018-07-15T13:01:05.845Z,996.21
2018-07-15T13:02:15.959Z,996.19
2018-07-15T13:03:26.036Z,996.16
2018-07-15T13:04:36.129Z,996.15
2018-07-15T13:05:46.272Z,996.06
2018-07-15T13:06:56.367Z,996.08
2018-07-15T13:08:06.195Z,996.14
2018-07-15T13:09:16.298Z,996.08
2018-07-15T13:10:26.395Z,996.03
2018-07-15T13:11:36.584Z,996.05
2018-07-15T13:12:46.672Z,996.04
2018-07-15T13:13:56.482Z,996.14
2018-07-15T13:15:06.572Z,996.09
2018-07-15T13:16:16.660Z,996.08
2018-07-15T13:17:26.368Z,996.07
2018-07-15T13:18:36.446Z,996.06
2018-07-15T13:19:46.546Z,996.04
2018-07-15T13:20:56.639Z,996.07
2018-07-15T13:22:06.720Z,996.14
2018-07-15T13:23:16.846Z,996.16
2018-07-15T13:24:26.936Z,996.01
2018-07-15T13:25:37.038Z,996.06
2018-07-15T13:26:47.121Z,996.03
2018-07-15T13:27:57.219Z,996
2018-07-15T13:29:07.086Z,996.01
2018-07-15T13:30:17.174Z,996.03
2018-07-15T13:31:27.249Z,996.01
2018-07-15T13:32:37.330Z,996
2018-07-15T13:33:47.440Z,996.04
2018-07-15T13:34:57.525Z,996
2018-07-15T13:36:07.643Z,995.96
2018-07-15T13:37:17.723Z,995.97
2018-07-15T13:38:27.798Z,995.97
2018-07-15T13:39:37.888Z,995.95
2018-07-15T13:40:47.973Z,995.87
2018-07-15T13:41:58.277Z,995.84
2018-07-15T13:43:08.031Z,995.8
2018-07-15T13:44:18.119Z,995.83
2018-07-15T13:45:28.222Z,995.83
2018-07-15T13:46:38.330Z,995.71
2018-07-15T13:47:48.422Z,995.76
2018-07-15T13:48:58.287Z,995.81
2018-07-15T13:50:08.351Z,995.8
2018-07-15T13:51:18.440Z,995.8
2018-07-15T13:52:28.529Z,995.79
2018-07-15T13:53:38.629Z,995.79
2018-07-15T13:54:48.745Z,995.74
2018-07-15T13:55:58.839Z,995.76
2018-07-15T13:57:08.920Z,995.79
2018-07-15T13:58:18.999Z,995.81
2018-07-15T13:59:29.085Z,995.8
2018-07-15T14:00:39.168Z,995.79
2018-07-15T14:01:49.280Z,995.81
2018-07-15T14:02:59.361Z,995.74
2018-07-15T14:04:09.559Z,995.72
2018-07-15T14:05:20.121Z,995.71
2018-07-15T14:06:30.189Z,995.76
2018-07-15T14:07:40.280Z,995.81
2018-07-15T14:08:50.370Z,995.83
2018-07-15T14:10:00.185Z,995.76
2018-07-15T14:11:10.259Z,995.83
2018-07-15T14:12:20.353Z,995.8
2018-07-15T14:13:30.421Z,995.78
2018-07-15T14:14:40.530Z,995.8
2018-07-15T14:15:50.618Z,995.75
2018-07-15T14:17:00.718Z,995.81
2018-07-15T14:18:10.794Z,995.78
2018-07-15T14:19:20.899Z,995.79
2018-07-15T14:20:31.059Z,995.75
2018-07-15T14:21:41.153Z,995.74
2018-07-15T14:22:51.237Z,995.75
2018-07-15T14:24:01.057Z,995.73
2018-07-15T14:25:11.134Z,995.67
2018-07-15T14:26:21.005Z,995.65
2018-07-15T14:27:30.836Z,995.69
2018-07-15T14:28:40.922Z,995.67
2018-07-15T14:29:51.011Z,995.63
2018-07-15T14:31:00.844Z,995.64
2018-07-15T14:32:10.991Z,995.65
2018-07-15T14:33:21.085Z,995.65
2018-07-15T14:34:31.187Z,995.65
2018-07-15T14:35:41.269Z,995.61
2018-07-15T14:36:51.368Z,995.64
2018-07-15T14:38:01.284Z,995.57
2018-07-15T14:39:11.577Z,995.57
2018-07-15T14:40:21.653Z,995.59
2018-07-15T14:41:31.788Z,995.54
2018-07-15T14:42:41.885Z,995.58
2018-07-15T14:43:51.996Z,995.61
2018-07-15T14:45:02.118Z,995.6
2018-07-15T14:46:12.221Z,995.58
2018-07-15T14:47:22.324Z,995.55
2018-07-15T14:48:32.416Z,995.54
2018-07-15T14:49:42.507Z,995.6
2018-07-15T14:50:52.620Z,995.55
2018-07-15T14:52:02.708Z,995.57
2018-07-15T14:53:12.797Z,995.56
2018-07-15T14:54:22.888Z,995.54
2018-07-15T14:55:33.025Z,995.58
2018-07-15T14:56:43.121Z,995.52
2018-07-15T14:57:53.217Z,995.53
2018-07-15T14:59:03.333Z,995.57
2018-07-15T15:00:13.438Z,995.6
2018-07-15T15:01:23.052Z,995.53
2018-07-15T15:02:32.626Z,995.56
2018-07-15T15:03:42.717Z,995.57
2018-07-15T15:04:52.805Z,995.59
2018-07-15T15:06:02.896Z,995.56
2018-07-15T15:07:13.047Z,995.53
2018-07-15T15:08:23.155Z,995.5